createdAt,value
2023-02-08T15:35:26.012Z,102.50
2023-02-08T15:36:32.750Z,96.35
2023-02-08T15:37:35.695Z,101.05
2023-02-08T15:38:38.968Z,132.15
2023-02-08T15:39:43.026Z,145.33
2023-02-08T15:41:00.533Z,189.10
2023-02-08T15:42:04.861Z,96.28
2023-02-08T15:43:07.947Z,121.70
2023-02-08T15:44:13.743Z,66.15
2023-02-08T15:45:25.251Z,51.55
2023-02-08T15:46:29.855Z,39.22
2023-02-08T15:47:36.622Z,39.63
2023-02-08T15:48:44.432Z,36.13
2023-02-08T15:49:53.490Z,34.70
2023-02-08T15:50:57.854Z,33.10
2023-02-08T15:52:02.400Z,31.20
2023-02-08T15:53:07.502Z,35.53
2023-02-08T15:54:18.312Z,31.98
2023-02-08T15:55:21.487Z,39.20
2023-02-08T15:56:38.399Z,39.72
2023-02-08T15:57:46.751Z,37.45
2023-02-08T15:58:54.873Z,37.17
2023-02-08T15:59:58.548Z,45.22
2023-02-08T16:01:03.900Z,49.80
2023-02-08T16:02:27.251Z,53.77
2023-02-08T16:03:31.322Z,60.00
2023-02-08T16:04:43.562Z,168.00
2023-02-08T16:05:59.310Z,126.45
2023-02-08T16:07:02.182Z,73.28
2023-02-08T16:08:07.650Z,63.78
2023-02-08T16:09:17.864Z,56.40
2023-02-08T16:10:28.253Z,78.30
2023-02-08T16:11:35.518Z,58.85
2023-02-08T16:12:38.325Z,59.13
2023-02-08T16:13:47.974Z,45.87
2023-02-08T16:14:52.972Z,34.00
2023-02-08T16:16:15.891Z,35.45
2023-02-08T16:17:43.499Z,31.67
2023-02-08T16:19:02.755Z,39.40
2023-02-08T16:20:23.104Z,36.15
2023-02-08T16:21:28.315Z,120.28
2023-02-08T16:22:34.306Z,194.00
2023-02-08T16:23:39.127Z,139.80
2023-02-08T16:24:42.515Z,157.48
2023-02-08T16:25:49.034Z,151.53
2023-02-08T16:27:04.152Z,83.57
2023-02-08T16:28:28.766Z,63.60
2023-02-08T16:29:37.846Z,61.37
2023-02-08T16:30:44.925Z,67.85
2023-02-08T16:31:56.080Z,62.88
2023-02-08T16:33:07.276Z,66.80
2023-02-08T16:34:19.121Z,60.08
2023-02-08T16:35:33.633Z,56.95
2023-02-08T16:36:42.696Z,57.00
2023-02-08T16:37:46.452Z,53.83
2023-02-08T16:39:15.059Z,56.22
2023-02-08T16:40:39.062Z,65.93
2023-02-08T16:42:13.908Z,66.07
2023-02-08T16:43:31.987Z,76.85
2023-02-08T16:44:37.017Z,77.10
2023-02-08T16:45:40.153Z,100.62
2023-02-08T16:46:46.477Z,104.82
2023-02-08T16:47:55.470Z,90.80
2023-02-08T16:48:58.908Z,73.37
2023-02-08T16:50:02.113Z,77.97
2023-02-08T16:51:27.350Z,64.75
2023-02-08T16:52:31.562Z,62.30
2023-02-08T16:53:41.934Z,56.33
2023-02-08T16:54:45.677Z,54.13
2023-02-08T16:55:48.362Z,50.92
2023-02-08T16:56:56.296Z,50.55
2023-02-08T16:58:00.421Z,48.63
2023-02-08T16:59:03.835Z,48.97
2023-02-08T17:00:29.680Z,55.55
2023-02-08T17:01:34.139Z,56.33
2023-02-08T17:02:37.335Z,68.22
2023-02-08T17:03:42.285Z,63.97
2023-02-08T17:04:46.051Z,58.08
2023-02-08T17:05:49.044Z,55.00
2023-02-08T17:06:52.968Z,46.58
2023-02-08T17:07:56.526Z,58.60
2023-02-08T17:09:02.925Z,93.50
2023-02-08T17:10:08.572Z,130.77
2023-02-08T17:11:12.521Z,121.65
2023-02-08T17:12:22.194Z,120.13
2023-02-08T17:13:29.365Z,116.15
2023-02-08T17:14:33.446Z,104.68
2023-02-08T17:15:38.618Z,87.90
2023-02-08T17:16:42.040Z,58.53
2023-02-08T17:17:45.405Z,60.30
2023-02-08T17:18:52.201Z,65.10
2023-02-08T17:20:02.490Z,73.78
2023-02-08T17:21:06.721Z,87.70
2023-02-08T17:22:09.744Z,92.95
2023-02-08T17:23:13.533Z,106.93
2023-02-08T17:24:17.563Z,93.00
2023-02-08T17:25:23.605Z,91.50
2023-02-08T17:26:30.475Z,95.25
2023-02-08T17:27:34.459Z,85.50
2023-02-08T17:28:40.419Z,85.18
2023-02-08T17:29:45.205Z,73.00
2023-02-08T17:30:50.660Z,77.53
2023-02-08T17:31:55.873Z,69.15
2023-02-08T17:33:00.766Z,71.50
2023-02-08T17:34:05.526Z,67.43
2023-02-08T17:35:10.079Z,62.83
2023-02-08T17:36:20.003Z,65.15
2023-02-08T17:37:23.336Z,63.50
2023-02-08T17:38:29.104Z,52.90
2023-02-08T17:39:33.091Z,53.50
2023-02-08T17:40:37.378Z,81.25
2023-02-08T17:41:41.829Z,73.05
2023-02-08T17:42:47.652Z,83.10
2023-02-08T17:43:53.575Z,99.25
2023-02-08T17:44:57.922Z,66.30
2023-02-08T17:46:02.527Z,70.45
2023-02-08T17:47:06.436Z,70.60
2023-02-08T17:48:10.009Z,81.45
2023-02-08T17:49:16.835Z,62.40
2023-02-08T17:50:20.968Z,48.10
2023-02-08T17:51:24.662Z,48.75
2023-02-08T17:52:29.700Z,39.92
2023-02-08T17:53:38.277Z,33.83
2023-02-08T17:54:41.891Z,34.15
2023-02-08T17:55:46.659Z,48.73
2023-02-08T17:56:57.031Z,55.95
2023-02-08T17:58:01.834Z,57.70
2023-02-08T17:59:05.995Z,52.10
2023-02-08T18:00:16.693Z,51.37
2023-02-08T18:01:26.925Z,62.58
2023-02-08T18:02:31.112Z,72.22
2023-02-08T18:03:34.400Z,77.68
2023-02-08T18:04:40.726Z,91.75
2023-02-08T18:05:44.540Z,119.00
2023-02-08T18:06:49.687Z,121.80
2023-02-08T18:07:55.102Z,84.95
2023-02-08T18:09:00.139Z,57.03
2023-02-08T18:10:04.318Z,71.97
2023-02-08T18:11:17.534Z,72.97
2023-02-08T18:12:21.739Z,73.50
2023-02-08T18:13:25.862Z,41.72
2023-02-08T18:14:29.646Z,43.20
2023-02-08T18:15:34.779Z,41.95
2023-02-08T18:16:38.731Z,40.28
2023-02-08T18:17:44.187Z,33.83
2023-02-08T18:18:49.748Z,33.65
2023-02-08T18:19:55.702Z,41.50
2023-02-08T18:20:59.212Z,39.53
2023-02-08T18:22:04.747Z,46.05
2023-02-08T18:23:09.452Z,40.05
2023-02-08T18:24:17.392Z,34.83
2023-02-08T18:25:21.682Z,34.20
2023-02-08T18:26:27.184Z,33.72
2023-02-08T18:27:32.482Z,34.20
2023-02-08T18:28:39.321Z,29.57
2023-02-08T18:29:43.674Z,32.10
2023-02-08T18:30:52.180Z,34.65
2023-02-08T18:31:57.853Z,35.55
2023-02-08T18:33:02.853Z,39.03
2023-02-08T18:34:07.179Z,34.70
2023-02-08T18:35:11.884Z,32.22
2023-02-08T18:36:16.887Z,32.50
2023-02-08T18:37:22.384Z,35.30
2023-02-08T18:38:26.983Z,36.95
2023-02-08T18:39:32.094Z,39.37
2023-02-08T18:40:37.648Z,36.85
2023-02-08T18:41:44.109Z,33.63
2023-02-08T18:42:48.083Z,30.48
2023-02-08T18:43:53.589Z,34.20
2023-02-08T18:44:58.032Z,32.90
2023-02-08T18:46:05.068Z,37.45
2023-02-08T18:47:11.954Z,40.83
2023-02-08T18:48:17.545Z,35.25
2023-02-08T18:49:22.133Z,43.10
2023-02-08T18:50:31.139Z,48.37
2023-02-08T18:51:38.321Z,46.90
2023-02-08T18:52:43.352Z,37.67
2023-02-08T18:53:51.135Z,45.05
2023-02-08T18:54:55.846Z,33.92
2023-02-08T18:56:02.916Z,31.62
2023-02-08T18:57:12.269Z,35.13
2023-02-08T18:58:19.401Z,36.50
2023-02-08T18:59:27.078Z,35.42
2023-02-08T19:00:32.875Z,38.63
2023-02-08T19:01:38.595Z,39.73
2023-02-08T19:02:46.558Z,44.45
2023-02-08T19:03:52.761Z,55.90
2023-02-08T19:04:57.350Z,47.72
2023-02-08T19:06:09.948Z,47.22
2023-02-08T19:07:16.810Z,37.05
2023-02-08T19:08:22.719Z,34.20
2023-02-08T19:09:29.620Z,44.22
2023-02-08T19:10:38.941Z,53.78
2023-02-08T19:11:49.293Z,55.60
2023-02-08T19:12:57.994Z,63.90
2023-02-08T19:14:07.616Z,68.00
2023-02-08T19:15:14.915Z,69.53
2023-02-08T19:16:22.481Z,50.33
2023-02-08T19:17:29.143Z,44.70
2023-02-08T19:18:36.154Z,62.13
2023-02-08T19:19:41.030Z,80.78
2023-02-08T19:20:46.568Z,81.78
2023-02-08T19:21:51.262Z,76.20
2023-02-08T19:22:56.426Z,76.50
2023-02-08T19:24:02.728Z,85.13
2023-02-08T19:25:07.333Z,83.53
2023-02-08T19:26:24.879Z,79.18
2023-02-08T19:27:32.275Z,79.10
2023-02-08T19:28:40.911Z,78.28
2023-02-08T19:29:47.801Z,76.32
2023-02-08T19:30:51.283Z,72.20
2023-02-08T19:31:58.391Z,66.18
2023-02-08T19:33:07.517Z,66.05
2023-02-08T19:34:13.378Z,61.63
2023-02-08T19:35:20.313Z,58.20
2023-02-08T19:36:31.462Z,58.25
2023-02-08T19:37:38.067Z,56.00
2023-02-08T19:38:43.032Z,56.15
2023-02-08T19:39:48.264Z,48.10
2023-02-08T19:40:55.254Z,53.80
2023-02-08T19:42:01.413Z,56.92
2023-02-08T19:43:05.381Z,61.92
2023-02-08T19:44:13.866Z,61.28
2023-02-08T19:45:18.713Z,68.12
2023-02-08T19:46:26.284Z,52.17
2023-02-08T19:47:50.298Z,53.53
2023-02-08T19:49:00.572Z,60.90
2023-02-08T19:50:06.030Z,90.90
2023-02-08T19:51:10.496Z,91.22
2023-02-08T19:52:20.474Z,60.33
2023-02-08T19:53:25.942Z,80.72
2023-02-08T19:54:30.296Z,67.53
2023-02-08T19:55:37.489Z,49.00
2023-02-08T19:56:53.776Z,51.72
2023-02-08T19:58:06.496Z,45.63
2023-02-08T19:59:23.997Z,47.50
2023-02-08T20:00:28.699Z,40.70
2023-02-08T20:01:34.946Z,37.13
2023-02-08T20:02:39.923Z,43.22
2023-02-08T20:03:45.158Z,38.55
2023-02-08T20:04:52.875Z,48.92
2023-02-08T20:05:58.023Z,88.25
2023-02-08T20:07:02.941Z,72.70
2023-02-08T20:08:08.784Z,97.07
2023-02-08T20:09:17.202Z,113.37
2023-02-08T20:10:22.866Z,150.32
2023-02-08T20:11:30.989Z,104.57
2023-02-08T20:12:35.846Z,78.90
2023-02-08T20:13:41.330Z,69.53
2023-02-08T20:14:48.541Z,55.70
2023-02-08T20:16:01.692Z,51.90
2023-02-08T20:17:06.065Z,43.90
2023-02-08T20:18:13.962Z,38.78
2023-02-08T20:19:18.585Z,43.67
2023-02-08T20:20:23.269Z,41.23
2023-02-08T20:21:29.104Z,33.65
2023-02-08T20:22:36.432Z,35.33
2023-02-08T20:23:41.477Z,37.13
2023-02-08T20:24:46.659Z,39.42
2023-02-08T20:25:51.192Z,37.28
2023-02-08T20:26:56.479Z,38.33
2023-02-08T20:28:01.666Z,33.58
2023-02-08T20:29:07.634Z,40.03
2023-02-08T20:30:12.689Z,48.78
2023-02-08T20:31:25.048Z,53.83
2023-02-08T20:32:30.732Z,47.50
2023-02-08T20:33:36.135Z,45.58
2023-02-08T20:34:50.627Z,45.15
2023-02-08T20:36:13.307Z,50.17
2023-02-08T20:37:21.653Z,44.72
2023-02-08T20:38:27.698Z,41.70
2023-02-08T20:39:32.560Z,44.38
2023-02-08T20:40:37.344Z,38.42
2023-02-08T20:41:44.831Z,37.60
2023-02-08T20:42:52.006Z,40.10
2023-02-08T20:44:00.920Z,39.17
2023-02-08T20:45:06.848Z,43.05
2023-02-08T20:46:20.077Z,41.15
2023-02-08T20:47:24.777Z,39.35
2023-02-08T20:48:30.820Z,39.20
2023-02-08T20:49:35.581Z,38.38
2023-02-08T20:50:40.031Z,36.80
2023-02-08T20:51:44.909Z,40.12
2023-02-08T20:52:49.758Z,36.75
2023-02-08T20:53:55.874Z,38.03
2023-02-08T20:55:00.138Z,36.42
2023-02-08T20:56:08.537Z,36.10
2023-02-08T20:57:16.543Z,33.75
2023-02-08T20:58:22.589Z,35.80
2023-02-08T20:59:27.115Z,33.85
2023-02-08T21:00:40.402Z,30.95
2023-02-08T21:01:47.162Z,33.80
2023-02-08T21:02:51.875Z,31.83
2023-02-08T21:03:57.762Z,36.17
2023-02-08T21:05:01.579Z,32.97
2023-02-08T21:06:29.488Z,33.92
2023-02-08T21:07:33.901Z,36.17
2023-02-08T21:08:43.488Z,42.85
2023-02-08T21:09:47.085Z,56.37
2023-02-08T21:10:51.144Z,53.10
2023-02-08T21:11:54.735Z,39.55
2023-02-08T21:12:57.948Z,40.85
2023-02-08T21:14:02.154Z,43.20
2023-02-08T21:15:08.152Z,53.42
2023-02-08T21:16:11.962Z,45.03
2023-02-08T21:17:15.281Z,43.50
2023-02-08T21:18:20.175Z,49.70
2023-02-08T21:19:29.172Z,42.00
2023-02-08T21:20:33.127Z,43.95
2023-02-08T21:21:36.560Z,46.10
2023-02-08T21:22:40.309Z,43.17
2023-02-08T21:23:44.988Z,43.00
2023-02-08T21:24:48.746Z,42.47
2023-02-08T21:25:52.109Z,42.58
2023-02-08T21:26:56.436Z,37.57
2023-02-08T21:27:59.949Z,40.53
2023-02-08T21:29:08.802Z,36.22
2023-02-08T21:30:12.661Z,37.53
2023-02-08T21:31:19.985Z,39.45
2023-02-08T21:32:22.973Z,38.92
2023-02-08T21:33:26.574Z,39.35
2023-02-08T21:34:30.429Z,33.65
2023-02-08T21:35:38.309Z,34.35
2023-02-08T21:36:41.542Z,39.08
2023-02-08T21:37:44.632Z,35.23
2023-02-08T21:38:50.580Z,37.58
2023-02-08T21:39:53.518Z,34.42
2023-02-08T21:40:57.455Z,34.03
2023-02-08T21:42:00.748Z,35.78
2023-02-08T21:43:03.956Z,33.45
2023-02-08T21:44:08.355Z,36.75
2023-02-08T21:45:11.328Z,34.22
2023-02-08T21:46:15.150Z,34.47
2023-02-08T21:47:18.573Z,33.85
2023-02-08T21:48:21.870Z,36.37
2023-02-08T21:49:43.268Z,36.67
2023-02-08T21:51:04.775Z,32.13
2023-02-08T21:52:27.960Z,33.25
2023-02-08T21:53:49.394Z,38.90
2023-02-08T21:54:55.123Z,38.47
2023-02-08T21:55:58.513Z,39.20
2023-02-08T21:57:03.526Z,40.88
2023-02-08T21:58:07.192Z,49.75
2023-02-08T21:59:11.488Z,47.67
2023-02-08T22:00:14.686Z,47.57
2023-02-08T22:01:23.925Z,43.20
2023-02-08T22:02:29.764Z,41.50
2023-02-08T22:03:34.467Z,43.87
2023-02-08T22:04:37.639Z,43.47
2023-02-08T22:05:40.315Z,46.05
2023-02-08T22:06:43.420Z,43.33
2023-02-08T22:07:53.100Z,46.20
2023-02-08T22:08:56.552Z,41.85
2023-02-08T22:09:59.217Z,45.17
2023-02-08T22:11:04.829Z,39.20
2023-02-08T22:12:12.790Z,38.35
2023-02-08T22:13:15.428Z,37.75
2023-02-08T22:14:18.143Z,38.40
2023-02-08T22:15:24.078Z,42.53
2023-02-08T22:16:26.855Z,39.63
2023-02-08T22:17:29.943Z,38.05
2023-02-08T22:18:33.203Z,39.17
2023-02-08T22:19:38.558Z,36.03
2023-02-08T22:20:41.431Z,40.55
2023-02-08T22:21:44.375Z,38.73
2023-02-08T22:22:47.887Z,36.38
2023-02-08T22:23:52.110Z,39.53
2023-02-08T22:24:54.848Z,38.17
2023-02-08T22:25:57.523Z,40.90
2023-02-08T22:27:01.654Z,39.63
2023-02-08T22:28:05.362Z,39.05
2023-02-08T22:29:08.257Z,40.85
2023-02-08T22:30:14.503Z,42.67
2023-02-08T22:31:21.845Z,45.15
2023-02-08T22:32:24.727Z,45.60
2023-02-08T22:33:29.077Z,46.10
2023-02-08T22:34:31.843Z,39.85
2023-02-08T22:35:34.594Z,49.40
2023-02-08T22:36:37.263Z,49.38
2023-02-08T22:37:40.661Z,47.05
2023-02-08T22:38:44.035Z,50.38
2023-02-08T22:39:46.724Z,46.65
2023-02-08T22:40:49.725Z,40.67
2023-02-08T22:41:52.695Z,42.20
2023-02-08T22:42:55.353Z,38.80
2023-02-08T22:43:58.687Z,35.42
2023-02-08T22:45:01.473Z,42.53
2023-02-08T22:46:05.032Z,34.20
2023-02-08T22:47:10.403Z,36.92
2023-02-08T22:48:13.420Z,41.92
2023-02-08T22:49:16.972Z,32.05
2023-02-08T22:50:19.704Z,35.17
2023-02-08T22:51:23.651Z,35.03
2023-02-08T22:52:26.870Z,36.95
2023-02-08T22:53:29.545Z,35.90
2023-02-08T22:54:33.061Z,33.40
2023-02-08T22:55:36.161Z,35.95
2023-02-08T22:56:38.969Z,34.22
2023-02-08T22:57:43.554Z,36.72
2023-02-08T22:58:47.409Z,40.45
2023-02-08T22:59:50.703Z,35.95
2023-02-08T23:00:53.436Z,35.28
2023-02-08T23:01:56.190Z,30.90
2023-02-08T23:02:59.041Z,30.00
2023-02-08T23:04:01.771Z,30.67
2023-02-08T23:05:04.848Z,32.30
2023-02-08T23:06:09.689Z,31.87
2023-02-08T23:07:13.987Z,25.88
2023-02-08T23:08:18.408Z,26.90
2023-02-08T23:09:21.237Z,29.17
2023-02-08T23:10:24.415Z,27.25
2023-02-08T23:11:27.221Z,30.70
2023-02-08T23:12:30.622Z,28.75
2023-02-08T23:13:34.268Z,30.12
2023-02-08T23:14:37.379Z,31.90
2023-02-08T23:15:43.453Z,34.10
2023-02-08T23:16:46.434Z,28.77
2023-02-08T23:17:49.156Z,29.17
2023-02-08T23:18:53.289Z,32.35
2023-02-08T23:19:56.961Z,35.13
2023-02-08T23:21:06.452Z,32.78
2023-02-08T23:22:09.396Z,29.33
2023-02-08T23:23:12.229Z,29.23
2023-02-08T23:24:14.981Z,29.48
2023-02-08T23:25:18.173Z,26.53
2023-02-08T23:26:22.432Z,28.35
2023-02-08T23:27:25.352Z,27.58
2023-02-08T23:28:28.920Z,28.65
2023-02-08T23:29:31.753Z,27.30
2023-02-08T23:30:34.688Z,29.33
2023-02-08T23:31:40.661Z,32.30
2023-02-08T23:32:43.747Z,29.45
2023-02-08T23:33:46.998Z,27.98
2023-02-08T23:34:49.722Z,35.05
2023-02-08T23:35:52.487Z,30.03
2023-02-08T23:36:55.499Z,29.95
2023-02-08T23:37:58.393Z,32.13
2023-02-08T23:39:01.686Z,39.45
2023-02-08T23:40:05.652Z,27.62
2023-02-08T23:41:16.055Z,30.55
2023-02-08T23:42:28.113Z,32.85
2023-02-08T23:43:31.008Z,38.03
2023-02-08T23:44:33.712Z,38.40
2023-02-08T23:45:37.008Z,36.65
2023-02-08T23:46:39.964Z,38.30
2023-02-08T23:47:43.488Z,36.50
2023-02-08T23:48:47.807Z,32.17
2023-02-08T23:49:50.814Z,34.35
2023-02-08T23:51:01.207Z,32.38
2023-02-08T23:52:03.963Z,27.65
2023-02-08T23:53:07.063Z,27.92
2023-02-08T23:54:09.861Z,27.77
2023-02-08T23:55:12.647Z,29.17
2023-02-08T23:56:20.557Z,30.48
2023-02-08T23:57:23.346Z,26.30
2023-02-08T23:58:27.435Z,30.80
2023-02-08T23:59:30.390Z,31.12
